Latest Weather Observations for Bunbury

IDW60801

Issued at 9:13 pm WST Wednesday 26 September 2018 (issued every 10 minutes, with the page automatically refreshed every 10 minutes)

About weather observations | Map of weather stations | Latest weather observations for WA | Other Formats
Station Details ID: 009965 Name: BUNBURY Lat: -33.36 Lon: 115.64 Height: 5.2 m
Data from the previous 72 hours. | See also: Recent months at Bunbury
Date/Time
WST
Temp
°C
App
Temp
°C
Dew
Point
°C
Rel
Hum
%
Delta-T
°C
Wind Press
QNH
hPa
Press
MSL
hPa
Rain since
9am
mm
Dir  Spd
km/h
Gust
km/h
Spd
kts
Gust
kts
26/09:00pm 11.5 9.2 7.4 76 2.0 S 9 15 5 8 1025.2 1025.2 0.0
26/08:30pm 12.2 9.6 7.7 74 2.2 S 11 17 6 9 1025.0 1025.0 0.0
26/08:00pm 12.7 9.8 8.0 73 2.3 S 13 19 7 10 1024.7 1024.7 0.0
26/07:30pm 13.1 11.0 8.2 72 2.4 SSW 9 17 5 9 1024.1 1024.1 0.0
26/07:00pm 13.6 11.4 8.0 69 2.8 S 9 13 5 7 1023.5 1023.5 0.0
26/06:30pm 14.4 11.8 7.7 64 3.3 SSW 11 19 6 10 1023.0 1023.0 0.0
26/06:00pm 15.6 13.5 8.4 62 3.6 SW 9 17 5 9 1023.0 1023.0 0.0
26/05:30pm 16.2 13.1 8.7 61 3.8 SW 15 26 8 14 1022.8 1022.8 0.0
26/05:00pm 16.6 13.2 9.3 62 3.8 WSW 17 26 9 14 1022.5 1022.5 0.0
26/04:30pm 16.7 13.4 9.6 63 3.7 WSW 17 30 9 16 1022.5 1022.5 0.0
26/04:00pm 17.1 13.8 9.5 61 4.0 WSW 17 24 9 13 1022.2 1022.2 0.0
26/03:30pm 17.6 14.0 10.0 61 4.0 WSW 19 28 10 15 1022.2 1022.2 0.0
26/03:00pm 17.1 13.0 10.0 63 3.7 WSW 22 32 12 17 1022.3 1022.3 0.0
26/02:30pm 17.5 13.7 8.9 57 4.5 WSW 19 26 10 14 1022.4 1022.4 0.0
26/02:00pm 18.1 14.7 9.2 56 4.6 WSW 17 26 9 14 1022.5 1022.5 0.0
26/01:30pm 17.4 13.7 8.0 54 4.8 WSW 17 26 9 14 1022.8 1022.8 0.0
26/01:00pm 16.9 14.1 8.6 58 4.2 W 13 20 7 11 1023.0 1023.0 0.0
26/12:30pm 16.7 13.1 8.4 58 4.2 WSW 17 22 9 12 1023.4 1023.4 0.0
26/12:00pm 16.9 14.4 8.3 57 4.4 WSW 11 20 6 11 1023.5 1023.5 0.0
26/11:30am 16.2 13.8 8.7 61 3.8 WSW 11 15 6 8 1023.8 1023.8 0.0
26/11:00am 15.7 13.0 7.5 58 4.1 WSW 11 20 6 11 1024.1 1024.1 0.0
26/10:30am 15.9 14.3 8.2 60 3.9 SSW 6 9 3 5 1023.9 1023.9 0.0
26/10:00am 16.4 14.6 9.6 64 3.5 SW 9 15 5 8 1024.0 1024.0 0.0
26/09:30am 15.7 14.1 10.2 70 2.9 SSW 9 13 5 7 1023.8 1023.8 0.0
26/09:00am 14.6 15.2 13.1 91 0.8 NE 2 4 1 2 1023.9 1023.9 0.0
26/08:30am 12.8 12.6 11.9 94 0.5 ESE 4 7 2 4 1023.7 1023.7 0.0
26/08:00am 10.4 10.3 9.6 95 0.4 CALM 0 0 0 0 1023.7 1023.7 0.0
26/07:30am 8.9 8.1 8.1 95 0.4 ESE 2 6 1 3 1023.5 1023.5 0.0
26/07:00am 5.3 4.1 4.4 94 0.4 CALM 0 0 0 0 1023.5 1023.5 0.0
26/06:30am 4.5 3.1 3.6 94 0.4 CALM 0 0 0 0 1023.1 1023.1 0.0
26/06:00am 4.7 3.3 3.8 94 0.4 CALM 0 0 0 0 1022.7 1022.7 0.0
26/05:30am 5.0 3.7 4.1 94 0.4 CALM 0 2 0 1 1022.7 1022.7 0.0
26/05:00am 6.0 4.5 5.1 94 0.4 E 2 4 1 2 1022.5 1022.5 0.0
26/04:30am 6.3 4.5 5.4 94 0.4 ESE 4 6 2 3 1022.5 1022.5 0.0
26/04:00am 5.8 3.9 4.8 93 0.4 ESE 4 6 2 3 1022.5 1022.5 0.0
26/03:30am 5.7 4.1 4.7 93 0.4 E 2 6 1 3 1022.4 1022.4 0.0
26/03:00am 5.9 4.7 4.7 92 0.5 CALM 0 0 0 0 1022.4 1022.4 0.0
26/02:30am 6.5 5.4 5.3 92 0.5 CALM 0 0 0 0 1022.6 1022.6 0.0
26/02:00am 6.7 5.7 5.5 92 0.5 CALM 0 0 0 0 1022.6 1022.6 0.0
26/01:30am 6.8 5.8 5.4 91 0.6 CALM 0 0 0 0 1022.9 1022.9 0.0
26/01:00am 7.0 6.0 5.5 90 0.7 CALM 0 0 0 0 1023.0 1023.0 0.0
26/12:30am 7.8 6.9 6.1 89 0.8 CALM 0 0 0 0 1023.2 1023.2 0.0
26/12:00am 8.0 6.7 6.0 87 0.9 S 2 6 1 3 1023.2 1023.2 0.0
 
Date/Time
WST
Temp
°C
App
Temp
°C
Dew
Point
°C
Rel
Hum
%
Delta-T
°C
Wind Press
QNH
hPa
Press
MSL
hPa
Rain since
9am
mm
Dir  Spd
km/h
Gust
km/h
Spd
kts
Gust
kts
25/11:30pm 8.6 7.8 6.4 86 1.0 CALM 0 0 0 0 1023.4 1023.4 0.0
25/11:00pm 9.7 8.3 7.1 84 1.2 SSW 4 4 2 2 1023.6 1023.6 0.0
25/10:30pm 10.4 9.4 7.5 82 1.4 S 2 4 1 2 1023.7 1023.7 0.0
25/10:00pm 11.1 9.8 7.6 79 1.7 S 4 6 2 3 1023.8 1023.8 0.0
25/09:30pm 11.8 10.1 7.5 75 2.1 S 6 7 3 4 1023.8 1023.8 0.0
25/09:00pm 12.5 10.7 8.0 74 2.2 S 7 11 4 6 1023.7 1023.7 0.0
25/08:30pm 13.3 11.2 8.4 72 2.4 SSW 9 15 5 8 1023.7 1023.7 0.0
25/08:00pm 14.3 12.4 8.9 70 2.7 SSW 9 19 5 10 1023.5 1023.5 0.0
25/07:30pm 14.9 12.5 9.9 72 2.6 SW 13 20 7 11 1023.1 1023.1 0.0
25/07:00pm 15.1 12.5 9.2 68 3.0 SW 13 22 7 12 1022.6 1022.6 0.0
25/06:30pm 15.1 12.5 9.5 69 2.9 WSW 13 20 7 11 1022.2 1022.2 0.0
25/06:00pm 15.8 13.2 9.2 65 3.4 WSW 13 19 7 10 1022.0 1022.0 0.0
25/05:30pm 16.4 13.4 9.3 63 3.7 WSW 15 22 8 12 1021.9 1021.9 0.0
25/05:00pm 17.0 13.7 9.7 62 3.8 WSW 17 26 9 14 1021.8 1021.8 0.0
25/04:30pm 17.1 13.4 10.0 63 3.7 W 20 32 11 17 1021.7 1021.7 0.0
25/04:00pm 17.4 13.8 10.5 64 3.7 WSW 20 28 11 15 1021.4 1021.4 0.0
25/03:30pm 18.1 15.0 10.2 60 4.2 WSW 17 30 9 16 1021.2 1021.2 0.0
25/03:00pm 18.0 14.2 9.9 59 4.3 WSW 20 33 11 18 1021.4 1021.4 0.0
25/02:30pm 18.2 14.7 10.8 62 4.0 W 20 28 11 15 1021.3 1021.3 0.0
25/02:00pm 18.4 14.9 11.0 62 4.0 W 20 28 11 15 1021.4 1021.4 0.0
25/01:30pm 18.4 15.1 11.7 65 3.7 W 20 26 11 14 1021.6 1021.6 0.0
25/01:00pm 18.4 15.0 11.2 63 3.9 W 20 30 11 16 1021.9 1021.9 0.0
25/12:30pm 18.9 15.6 11.7 63 4.0 WNW 20 28 11 15 1022.0 1022.0 0.0
25/12:00pm 18.4 15.0 11.2 63 3.9 W 20 28 11 15 1022.2 1022.2 0.0
25/11:30am 18.4 15.5 11.0 62 4.0 W 17 24 9 13 1022.4 1022.4 0.0
25/11:00am 18.0 14.7 10.9 63 3.8 W 19 28 10 15 1022.6 1022.6 0.0
25/10:30am 18.1 15.7 11.4 65 3.7 W 15 22 8 12 1022.6 1022.6 0.0
25/10:00am 17.4 14.4 10.8 65 3.5 WSW 17 24 9 13 1022.6 1022.6 0.0
25/09:30am 17.5 14.6 11.1 66 3.5 SW 17 24 9 13 1022.4 1022.4 0.0
25/09:00am 17.1 14.2 10.9 67 3.3 SW 17 26 9 14 1022.3 1022.3 1.0
25/08:30am 16.6 14.5 12.4 76 2.3 WSW 15 20 8 11 1022.1 1022.1 1.0
25/08:00am 16.1 15.1 14.5 90 0.9 WSW 13 24 7 13 1021.9 1021.9 1.0
25/07:30am 13.9 14.6 13.3 96 0.3 S 2 13 1 7 1021.7 1021.7 1.0
25/07:00am 12.5 12.3 11.9 96 0.3 SE 4 4 2 2 1021.4 1021.4 1.0
25/06:30am 10.9 10.6 10.1 95 0.4 E 2 4 1 2 1021.2 1021.2 1.0
25/06:00am 11.1 10.9 10.3 95 0.4 ESE 2 6 1 3 1021.0 1021.0 1.0
25/05:30am 11.4 11.2 10.6 95 0.4 E 2 4 1 2 1020.8 1020.7 1.0
25/05:00am 12.0 11.6 11.2 95 0.4 ESE 4 4 2 2 1020.5 1020.4 1.0
25/04:30am 11.8 12.1 11.0 95 0.4 CALM 0 0 0 0 1020.5 1020.4 1.0
25/04:00am 11.3 11.1 10.5 95 0.4 ENE 2 6 1 3 1020.4 1020.3 1.0
25/03:30am 10.1 9.6 9.2 94 0.4 ENE 2 6 1 3 1020.2 1020.1 0.2
25/03:00am 9.8 9.2 8.9 94 0.4 NE 2 7 1 4 1020.3 1020.2 0.2
25/02:30am 9.1 8.7 8.2 94 0.4 CALM 0 0 0 0 1020.4 1020.3 0.2
25/02:00am 8.7 8.1 7.6 93 0.5 CALM 0 0 0 0 1020.6 1020.5 0.2
25/01:30am 8.7 8.1 7.6 93 0.5 CALM 0 0 0 0 1020.8 1020.7 0.2
25/01:00am 8.5 7.9 7.4 93 0.5 CALM 0 0 0 0 1021.1 1021.1 0.2
25/12:30am 8.9 8.4 7.7 92 0.6 CALM 0 0 0 0 1021.2 1021.2 0.2
25/12:00am 9.1 8.2 7.9 92 0.6 E 2 4 1 2 1021.2 1021.2 0.2
 
Date/Time
WST
Temp
°C
App
Temp
°C
Dew
Point
°C
Rel
Hum
%
Delta-T
°C
Wind Press
QNH
hPa
Press
MSL
hPa
Rain since
9am
mm
Dir  Spd
km/h
Gust
km/h
Spd
kts
Gust
kts
24/11:30pm 10.2 9.9 8.8 91 0.7 CALM 0 0 0 0 1021.3 1021.3 0.2
24/11:00pm 10.3 10.0 8.7 90 0.8 CALM 0 0 0 0 1021.5 1021.5 0.2
24/10:30pm 10.8 10.6 8.9 88 0.9 CALM 0 0 0 0 1021.6 1021.6 0.2
24/10:00pm 10.9 10.2 8.7 86 1.1 E 2 4 1 2 1021.6 1021.6 0.2
24/09:30pm 13.3 13.5 10.7 84 1.4 CALM 0 4 0 2 1021.6 1021.6 0.2
24/09:00pm 14.4 13.6 11.6 83 1.5 SW 7 11 4 6 1021.5 1021.5 0.2
24/08:30pm 14.8 14.0 11.8 82 1.6 SW 7 13 4 7 1021.3 1021.3 0.2
24/08:00pm 15.4 14.4 12.3 82 1.7 WSW 9 15 5 8 1021.3 1021.3 0.2
24/07:30pm 15.4 14.1 12.5 83 1.6 WSW 11 17 6 9 1020.9 1020.8 0.2
24/07:00pm 15.7 14.2 13.2 85 1.4 W 13 20 7 11 1020.5 1020.4 0.2
24/06:30pm 15.7 14.2 13.0 84 1.5 W 13 20 7 11 1020.3 1020.2 0.2
24/06:00pm 16.2 14.7 13.1 82 1.7 W 13 19 7 10 1020.1 1020.0 0.2
24/05:30pm 16.8 15.0 13.3 80 2.0 W 15 20 8 11 1019.9 1019.8 0.2
24/05:00pm 17.5 15.7 13.4 77 2.3 W 15 22 8 12 1019.5 1019.4 0.2
24/04:30pm 17.8 15.6 13.3 75 2.5 W 17 26 9 14 1019.3 1019.2 0.2
24/04:00pm 18.1 15.7 13.8 76 2.4 W 19 28 10 15 1019.2 1019.1 0.2
24/03:30pm 18.6 18.0 14.5 77 2.4 NW 11 15 6 8 1019.1 1019.0 0.2
24/03:00pm 18.2 17.7 13.9 76 2.4 WNW 9 17 5 9 1019.2 1019.1 0.2
24/02:30pm 18.4 16.8 13.9 75 2.6 NW 15 24 8 13 1019.1 1019.0 0.2
24/02:00pm 18.2 16.5 12.6 70 3.1 WNW 13 17 7 9 1019.0 1018.9 0.2
24/01:30pm 18.5 17.3 12.7 69 3.2 WNW 11 15 6 8 1018.9 1018.8 0.2
24/01:00pm 18.8 17.8 13.4 71 3.1 WNW 11 17 6 9 1019.2 1019.1 0.2
24/12:30pm 18.6 17.7 13.7 73 2.8 WNW 11 13 6 7 1019.4 1019.3 0.0
24/12:00pm 18.8 18.7 14.9 78 2.3 WNW 9 13 5 7 1019.6 1019.5 0.0
24/11:30am 17.3 16.0 14.8 85 1.4 W 15 20 8 11 1019.8 1019.7 0.0
24/11:00am 17.1 16.4 15.3 89 1.0 W 13 19 7 10 1019.9 1019.8 0.0
24/10:30am 17.2 17.1 15.9 92 0.8 WNW 11 17 6 9 1020.0 1019.9 0.0
24/10:00am 16.4 15.7 15.3 93 0.6 NW 13 19 7 10 1020.1 1020.0 0.0
24/09:30am 16.5 17.2 15.7 95 0.5 NNW 6 9 3 5 1020.0 1019.9 0.0
24/09:00am 15.7 15.6 14.9 95 0.5 N 9 11 5 6 1020.0 1019.9 0.0
24/08:30am 15.6 15.5 15.0 96 0.3 NE 9 13 5 7 1019.7 1019.6 0.0
24/08:00am 14.8 15.0 14.2 96 0.3 NE 6 7 3 4 1019.6 1019.5 0.0
24/07:30am 14.0 14.3 13.4 96 0.3 ENE 4 6 2 3 1019.6 1019.5 0.0
24/07:00am 13.5 14.4 12.9 96 0.3 CALM 0 4 0 2 1019.4 1019.3 0.0
24/06:30am 13.1 12.6 12.5 96 0.3 E 7 9 4 5 1019.1 1019.0 0.0
24/06:00am 12.6 12.0 11.8 95 0.4 E 6 9 3 5 1019.0 1018.9 0.0
24/05:30am 13.3 13.7 12.5 95 0.4 E 2 6 1 3 1019.0 1018.9 0.0
24/05:00am 12.1 11.8 11.3 95 0.4 E 4 6 2 3 1018.8 1018.7 0.0
24/04:30am 11.3 11.1 10.4 94 0.5 ESE 2 6 1 3 1018.9 1018.8 0.0
24/04:00am 9.7 8.3 8.8 94 0.4 NNE 6 11 3 6 1018.8 1018.7 0.0
24/03:30am 10.3 9.4 9.4 94 0.4 ENE 4 6 2 3 1018.3 1018.2 0.0
24/03:00am 9.7 9.0 8.6 93 0.5 E 2 4 1 2 1018.4 1018.3 0.0
24/02:30am 9.7 8.6 8.6 93 0.5 ESE 4 6 2 3 1018.5 1018.4 0.0
24/02:00am 10.0 9.8 8.9 93 0.5 CALM 0 0 0 0 1018.6 1018.5 0.0
24/01:30am 9.6 9.2 8.2 91 0.7 CALM 0 0 0 0 1019.0 1018.9 0.0
24/01:00am 9.9 9.6 8.5 91 0.7 CALM 0 0 0 0 1019.1 1019.0 0.0
24/12:30am 11.7 11.8 10.3 91 0.7 CALM 0 2 0 1 1019.1 1019.0 0.0
24/12:00am 12.1 12.3 10.5 90 0.8 CALM 0 0 0 0 1018.9 1018.8 0.0
 
Date/Time
WST
Temp
°C
App
Temp
°C
Dew
Point
°C
Rel
Hum
%
Delta-T
°C
Wind Press
QNH
hPa
Press
MSL
hPa
Rain since
9am
mm
Dir  Spd
km/h
Gust
km/h
Spd
kts
Gust
kts
23/11:30pm 12.7 12.7 11.1 90 0.8 E 2 4 1 2 1018.9 1018.8 0.0
23/11:00pm 13.7 13.6 12.1 90 0.9 S 4 6 2 3 1019.3 1019.2 0.0
23/10:30pm 13.8 13.4 12.5 92 0.7 SSW 6 9 3 5 1019.6 1019.5 0.0
23/10:00pm 12.2 11.7 10.9 92 0.7 SSW 4 7 2 4 1019.9 1019.8 0.0
23/09:30pm 12.5 12.9 11.1 91 0.7 CALM 0 0 0 0 1020.0 1019.9 0.0

Other Formats:

Comma delimited format used in spreadsheet applications
http://www.bom.gov.au/fwo/IDW60801/IDW60801.94604.axf

JavaScript Object Notation format (JSON) in row-major order
http://www.bom.gov.au/fwo/IDW60801/IDW60801.94604.json